• Join FlightAware (Why Join?)
  • Login
  • US Flag 
09:38PM EDT


 

Airport Tracker/Info


-or-


 

Live Flight TrackerFlight Track Log ✈ SWA407 ✈ 09-Apr-2013 ✈ KBNA - KTPA

Flight Track Log - Related Links

Times and Time Zones

All times are in EDT time to prevent confusion due to time zone crossing. See the SWA407 flight status page for this flight to view local times or setup timezone preferences in your user account.

Time Position Orientation Groundspeed Altitude Reporting Facility
EDT Latitude Longitude Course Direction KTS MPH feet Rate Location/Type
01:16PM 36.1167 -86.6833 180° South 144 166 1,200  Level Nashville TRACON
01:16PM 36.0833 -86.6833 180° South 194 223 3,300 2,820 Climbing Nashville TRACON
01:17PM 36.0167 -86.6500 158° South 238 274 6,600 3,120 Climbing Nashville TRACON
01:18PM 35.9836 -86.6272 151° Southeast 283 326 8,100 4,080 Climbing Memphis Center
01:19PM 35.9178 -86.5867 153° Southeast 274 315 12,400 3,840 Climbing Memphis Center
01:20PM 35.8497 -86.5436 153° Southeast 310 357 15,800 2,700 Climbing Memphis Center
01:21PM 35.7711 -86.4961 154° Southeast 310 357 17,900 2,280 Climbing Memphis Center
01:24PM 35.4786 -86.4081 166° South 411 473 25,000 2,340 Climbing Atlanta Center
01:25PM 35.3664 -86.3767 167° South 416 479 27,200 1,980 Climbing Atlanta Center
01:26PM 35.2592 -86.3178 156° South 422 486 29,000 1,740 Climbing Atlanta Center
01:27PM 35.1331 -86.2533 157° South 434 499 30,700 1,620 Climbing Atlanta Center
01:28PM 35.0153 -86.1894 156° South 446 513 32,300 1,860 Climbing Atlanta Center
01:29PM 34.8950 -86.1356 160° South 457 526 34,500 1,320 Climbing Atlanta Center
01:30PM 34.7728 -86.0819 160° South 462 532 35,000 240 Climbing Atlanta Center
01:31PM 34.6483 -86.0311 161° South 467 537 35,000 540 Level Atlanta Center
01:32PM 34.5261 -85.9778 160° South 467 537 36,100 1,320 Climbing Atlanta Center
01:33PM 34.4058 -85.9269 161° South 462 532 37,700 1,560 Climbing Atlanta Center
01:34PM 34.2856 -85.8767 161° South 462 532 39,300 1,260 Climbing Atlanta Center
01:35PM 34.1633 -85.8261 161° South 462 532 40,300 840 Climbing Atlanta Center
01:36PM 34.0575 -85.7864 163° South 448 516 41,000 300 Climbing Atlanta Center
01:37PM 33.9392 -85.7389 162° South 448 516 41,000  Level Atlanta Center
01:38PM 33.8167 -85.6867 160° South 453 521 41,000  Level Atlanta Center
01:39PM 33.6983 -85.6394 162° South 458 527 41,000  Level Atlanta Center
01:40PM 33.5778 -85.5872 160° South 458 527 41,000  Level Atlanta Center
01:41PM 33.4575 -85.5378 161° South 458 527 41,000  Level Atlanta Center
01:42PM 33.3392 -85.4908 162° South 458 527 41,000  Level Atlanta Center
01:43PM 33.2206 -85.4417 161° South 458 527 41,000  Level Atlanta Center
01:44PM 33.0875 -85.3875 161° South 458 527 41,000  Level Atlanta Center
01:45PM 32.9692 -85.3314 158° South 458 527 41,000  Level Atlanta Center
01:46PM 32.8486 -85.2825 161° South 463 533 41,000  Level Atlanta Center
01:47PM 32.7281 -85.2339 161° South 463 533 41,000  Level Atlanta Center
01:48PM 32.6075 -85.1831 160° South 462 532 41,000  Level Atlanta Center
01:49PM 32.4828 -85.1322 161° South 462 532 41,000  Level Atlanta Center
01:50PM 32.3581 -85.0839 162° South 462 532 41,000  Level Atlanta Center
01:51PM 32.2372 -85.0408 163° South 462 532 41,000  Level Atlanta Center
01:52PM 32.1178 -84.9897 160° South 457 526 41,000  Level Jacksonville Center
01:53PM 32.0100 -84.9458 161° South 480 552 41,000  Level Jacksonville Center
01:54PM 31.8897 -84.8989 162° South 475 547 41,000  Level Jacksonville Center
01:55PM 31.7569 -84.8497 163° South 464 534 41,000  Level Jacksonville Center
01:56PM 31.6364 -84.8008 161° South 458 527 41,000  Level Jacksonville Center
01:57PM 31.5183 -84.7422 157° South 458 527 41,000  Level Jacksonville Center
01:58PM 31.3981 -84.6792 156° South 464 534 41,000  Level Jacksonville Center
01:59PM 31.2800 -84.6208 157° South 469 540 41,000  Level Jacksonville Center
02:00PM 31.1617 -84.5606 156° South 469 540 41,000  Level Jacksonville Center
02:01PM 31.0372 -84.5000 157° South 474 545 41,000  Level Jacksonville Center
02:02PM 30.9169 -84.4400 157° South 474 545 41,000  Level Jacksonville Center
02:03PM 30.7967 -84.3775 156° South 474 545 41,000  Level Jacksonville Center
02:04PM 30.6761 -84.3178 157° South 474 545 41,000  Level Jacksonville Center
02:05PM 30.5578 -84.2581 157° South 474 545 41,000  Level Jacksonville Center
02:06PM 30.4394 -84.1986 157° South 474 545 41,000  Level Jacksonville Center
02:07PM 30.3292 -84.1464 158° South 474 545 41,000 -300 Level Jacksonville Center
02:08PM 30.2086 -84.0872 157° South 474 545 40,400 -840 Descending Jacksonville Center
02:09PM 30.0903 -84.0306 157° South 474 545 39,400 -960 Descending Jacksonville Center
02:10PM 29.9739 -83.9717 156° South 468 539 38,500 -900 Descending Jacksonville Center
02:11PM 29.8533 -83.9128 157° South 468 539 37,600 -960 Descending Jacksonville Center
02:12PM 29.7389 -83.8422 152° Southeast 468 539 36,600 -1,260 Descending Jacksonville Center
02:13PM 29.6247 -83.7717 152° Southeast 462 532 35,100 -1,800 Descending Jacksonville Center
02:14PM 29.5167 -83.7017 151° Southeast 462 532 33,000 -2,160 Descending Jacksonville Center
02:15PM 29.4083 -83.6292 150° Southeast 456 525 30,800 -2,220 Descending Jacksonville Center
02:16PM 29.3044 -83.5664 152° Southeast 439 505 28,600 -1,920 Descending Jacksonville Center
02:17PM 29.2067 -83.5017 150° Southeast 427 491 27,000 -1,200 Descending Jacksonville Center
02:18PM 29.1089 -83.4392 151° Southeast 413 475 26,200 -900 Descending Jacksonville Center
02:19PM 29.0131 -83.3792 151° Southeast 403 464 25,200 -1,320 Descending Jacksonville Center
02:20PM 28.9192 -83.3172 150° Southeast 397 457 23,600 -1,800 Descending Jacksonville Center
02:21PM 28.8278 -83.2600 151° Southeast 384 442 21,600 -1,980 Descending Jacksonville Center
02:22PM 28.7381 -83.2053 152° Southeast 373 429 19,700 -1,920 Descending Jacksonville Center
02:23PM 28.6000 -83.1167 151° Southeast 355 409 16,700 -1,920 Descending Tampa TRACON
02:24PM 28.5167 -83.0667 152° Southeast 347 399 14,800 -1,800 Descending Tampa TRACON
02:25PM 28.4333 -83.0167 152° Southeast 335 386 13,100 -1,680 Descending Tampa TRACON
02:26PM 28.3500 -82.9500 145° Southeast 312 359 11,300 -1,740 Descending Tampa TRACON
02:27PM 28.2833 -82.9000 147° Southeast 284 327 9,500 -1,860 Descending Tampa TRACON
02:29PM 28.2667 -82.8167 103° East 277 319 7,500 -1,620 Descending Tampa TRACON
02:30PM 28.2667 -82.7333 90° East 253 291 6,100 -780 Descending Tampa TRACON
02:31PM 28.2500 -82.6667 106° East 230 265 6,000 -420 Descending Tampa TRACON
02:32PM 28.2167 -82.6000 120° Southeast 209 241 5,300 -1,620 Descending Tampa TRACON
02:32PM 28.1833 -82.5667 139° Southeast 247 284 3,100 -1,740 Descending Tampa TRACON
02:33PM 28.1000 -82.5167 152° Southeast 249 287 2,000 -900 Descending Tampa TRACON
02:34PM 28.0500 -82.5333 196° South 183 211 1,300 -720 Descending Tampa TRACON
02:35PM 28.0167 -82.5333 180° South 142 163 600 -720 Descending Tampa TRACON
02:37PM 27.9755 -82.5332 161° South  Level Estimated
02:44PM 27.9755 -82.5332 161° South  Level Estimated
02:45PM 27.9755 -82.5332 161° South  Level Estimated